Terminal Aerodrome Forecast
Issued by NWS

Home | Current Version | Previous Version | Text Only | Print | Product List | Glossary On
Versions: 1 2 3 4 5 6 7 8 9 10 11 12 13 14 15 16 17 18 19
000
FTUS43 KGRR 051700
TAFJXN
TAF
KJXN 051740Z 0518/0618 05011KT P6SM -RA OVC015
     FM052100 09008KT 4SM -RA BR OVC007
     FM060300 08008KT 2SM -DZ BR OVC003
     FM061500 11007KT 4SM -DZ BR OVC006=

USA.gov is the U.S. government's official web portal to all federal, state and local government web resources and services.